sensor_id;sensor_type;location;lat;lon;timestamp;P1;durP1;ratioP1;P2;durP2;ratioP2
58123;SDS011;46725;48.068;20.832;2022-09-14T00:00:21;5.22;;;2.33;;
58123;SDS011;46725;48.068;20.832;2022-09-14T00:02:47;5.00;;;2.60;;
58123;SDS011;46725;48.068;20.832;2022-09-14T00:05:13;4.75;;;2.40;;
58123;SDS011;46725;48.068;20.832;2022-09-14T00:07:39;3.83;;;2.28;;
58123;SDS011;46725;48.068;20.832;2022-09-14T00:10:05;6.13;;;2.65;;
58123;SDS011;46725;48.068;20.832;2022-09-14T00:12:32;4.85;;;2.40;;
58123;SDS011;46725;48.068;20.832;2022-09-14T00:14:58;5.65;;;2.30;;
58123;SDS011;46725;48.068;20.832;2022-09-14T00:17:24;4.85;;;2.50;;
58123;SDS011;46725;48.068;20.832;2022-09-14T00:19:50;4.93;;;2.65;;
58123;SDS011;46725;48.068;20.832;2022-09-14T00:22:17;5.13;;;2.60;;
58123;SDS011;46725;48.068;20.832;2022-09-14T00:24:43;7.78;;;2.47;;
58123;SDS011;46725;48.068;20.832;2022-09-14T00:27:10;5.15;;;2.60;;
58123;SDS011;46725;48.068;20.832;2022-09-14T00:29:36;4.75;;;2.03;;
58123;SDS011;46725;48.068;20.832;2022-09-14T00:32:02;6.13;;;2.38;;
58123;SDS011;46725;48.068;20.832;2022-09-14T00:34:28;5.72;;;2.08;;
58123;SDS011;46725;48.068;20.832;2022-09-14T00:36:54;5.65;;;2.53;;
58123;SDS011;46725;48.068;20.832;2022-09-14T00:39:21;12.85;;;2.70;;
58123;SDS011;46725;48.068;20.832;2022-09-14T00:41:52;4.30;;;1.95;;
58123;SDS011;46725;48.068;20.832;2022-09-14T00:46:45;4.50;;;1.95;;
58123;SDS011;46725;48.068;20.832;2022-09-14T00:49:13;6.03;;;1.95;;
58123;SDS011;46725;48.068;20.832;2022-09-14T00:51:42;5.78;;;1.90;;
58123;SDS011;46725;48.068;20.832;2022-09-14T00:54:10;7.35;;;2.17;;
58123;SDS011;46725;48.068;20.832;2022-09-14T00:56:36;4.22;;;1.88;;
58123;SDS011;46725;48.068;20.832;2022-09-14T00:59:05;7.05;;;2.45;;
58123;SDS011;46725;48.068;20.832;2022-09-14T01:01:35;4.60;;;1.90;;
58123;SDS011;46725;48.068;20.832;2022-09-14T01:04:01;8.85;;;2.10;;
58123;SDS011;46725;48.068;20.832;2022-09-14T01:06:42;5.35;;;2.15;;
58123;SDS011;46725;48.068;20.832;2022-09-14T01:11:47;5.00;;;2.15;;
58123;SDS011;46725;48.068;20.832;2022-09-14T01:14:35;4.50;;;2.10;;
58123;SDS011;46725;48.068;20.832;2022-09-14T01:17:14;5.20;;;2.05;;
58123;SDS011;46725;48.068;20.832;2022-09-14T01:19:55;5.63;;;2.13;;
58123;SDS011;46725;48.068;20.832;2022-09-14T01:22:31;4.75;;;2.30;;
58123;SDS011;46725;48.068;20.832;2022-09-14T01:25:10;7.65;;;2.00;;
58123;SDS011;46725;48.068;20.832;2022-09-14T01:27:39;5.43;;;2.10;;
58123;SDS011;46725;48.068;20.832;2022-09-14T01:30:11;4.45;;;1.98;;
58123;SDS011;46725;48.068;20.832;2022-09-14T01:32:43;3.70;;;1.90;;
58123;SDS011;46725;48.068;20.832;2022-09-14T01:35:23;9.63;;;2.40;;
58123;SDS011;46725;48.068;20.832;2022-09-14T01:37:50;4.47;;;2.00;;
58123;SDS011;46725;48.068;20.832;2022-09-14T01:40:23;3.63;;;2.00;;
58123;SDS011;46725;48.068;20.832;2022-09-14T01:42:57;4.03;;;2.08;;
58123;SDS011;46725;48.068;20.832;2022-09-14T01:45:23;3.97;;;1.88;;
58123;SDS011;46725;48.068;20.832;2022-09-14T01:47:54;7.90;;;2.40;;
58123;SDS011;46725;48.068;20.832;2022-09-14T01:50:26;3.97;;;2.13;;
58123;SDS011;46725;48.068;20.832;2022-09-14T01:53:00;3.95;;;2.00;;
58123;SDS011;46725;48.068;20.832;2022-09-14T01:55:33;4.95;;;2.28;;
58123;SDS011;46725;48.068;20.832;2022-09-14T01:58:14;6.55;;;2.22;;
58123;SDS011;46725;48.068;20.832;2022-09-14T02:00:42;4.60;;;2.20;;
58123;SDS011;46725;48.068;20.832;2022-09-14T02:03:15;7.93;;;2.30;;
58123;SDS011;46725;48.068;20.832;2022-09-14T02:08:11;5.07;;;2.63;;
58123;SDS011;46725;48.068;20.832;2022-09-14T02:10:37;5.30;;;2.33;;
58123;SDS011;46725;48.068;20.832;2022-09-14T02:13:03;5.47;;;2.28;;
58123;SDS011;46725;48.068;20.832;2022-09-14T02:15:31;6.25;;;2.60;;
58123;SDS011;46725;48.068;20.832;2022-09-14T02:17:57;4.50;;;2.10;;
58123;SDS011;46725;48.068;20.832;2022-09-14T02:20:27;6.78;;;2.53;;
58123;SDS011;46725;48.068;20.832;2022-09-14T02:22:55;5.00;;;2.15;;
58123;SDS011;46725;48.068;20.832;2022-09-14T02:25:21;6.97;;;2.63;;
58123;SDS011;46725;48.068;20.832;2022-09-14T02:27:47;5.75;;;2.70;;
58123;SDS011;46725;48.068;20.832;2022-09-14T02:30:13;5.88;;;2.22;;
58123;SDS011;46725;48.068;20.832;2022-09-14T02:32:54;6.43;;;2.67;;
58123;SDS011;46725;48.068;20.832;2022-09-14T02:35:37;4.32;;;2.10;;
58123;SDS011;46725;48.068;20.832;2022-09-14T02:40:41;4.65;;;2.20;;
58123;SDS011;46725;48.068;20.832;2022-09-14T02:51:00;4.38;;;2.05;;
58123;SDS011;46725;48.068;20.832;2022-09-14T02:56:12;7.18;;;2.45;;
58123;SDS011;46725;48.068;20.832;2022-09-14T02:58:40;6.50;;;2.40;;
58123;SDS011;46725;48.068;20.832;2022-09-14T03:01:07;5.38;;;2.22;;
58123;SDS011;46725;48.068;20.832;2022-09-14T03:03:34;6.07;;;2.50;;
58123;SDS011;46725;48.068;20.832;2022-09-14T03:06:00;4.50;;;2.03;;
58123;SDS011;46725;48.068;20.832;2022-09-14T03:08:27;4.82;;;2.35;;
58123;SDS011;46725;48.068;20.832;2022-09-14T03:10:53;6.70;;;2.28;;
58123;SDS011;46725;48.068;20.832;2022-09-14T03:13:19;9.00;;;2.58;;
58123;SDS011;46725;48.068;20.832;2022-09-14T03:15:45;4.03;;;2.25;;
58123;SDS011;46725;48.068;20.832;2022-09-14T03:18:11;4.72;;;2.35;;
58123;SDS011;46725;48.068;20.832;2022-09-14T03:20:37;8.00;;;2.47;;
58123;SDS011;46725;48.068;20.832;2022-09-14T03:23:04;4.45;;;2.20;;
58123;SDS011;46725;48.068;20.832;2022-09-14T03:25:34;4.10;;;2.10;;
58123;SDS011;46725;48.068;20.832;2022-09-14T03:28:01;4.10;;;1.80;;
58123;SDS011;46725;48.068;20.832;2022-09-14T03:30:27;6.15;;;2.33;;
58123;SDS011;46725;48.068;20.832;2022-09-14T03:32:53;6.60;;;2.53;;
58123;SDS011;46725;48.068;20.832;2022-09-14T03:35:19;4.57;;;2.65;;
58123;SDS011;46725;48.068;20.832;2022-09-14T03:37:45;7.40;;;2.40;;
58123;SDS011;46725;48.068;20.832;2022-09-14T03:40:12;7.75;;;2.50;;
58123;SDS011;46725;48.068;20.832;2022-09-14T03:42:45;6.30;;;2.58;;
58123;SDS011;46725;48.068;20.832;2022-09-14T03:45:12;4.90;;;2.70;;
58123;SDS011;46725;48.068;20.832;2022-09-14T03:47:39;4.65;;;2.47;;
58123;SDS011;46725;48.068;20.832;2022-09-14T03:50:06;6.60;;;2.80;;
58123;SDS011;46725;48.068;20.832;2022-09-14T03:52:33;5.45;;;2.65;;
58123;SDS011;46725;48.068;20.832;2022-09-14T03:54:59;7.35;;;2.42;;
58123;SDS011;46725;48.068;20.832;2022-09-14T03:57:25;4.85;;;2.63;;
58123;SDS011;46725;48.068;20.832;2022-09-14T03:59:51;7.13;;;2.20;;
58123;SDS011;46725;48.068;20.832;2022-09-14T04:02:17;6.63;;;2.80;;
58123;SDS011;46725;48.068;20.832;2022-09-14T04:04:43;5.40;;;2.50;;
58123;SDS011;46725;48.068;20.832;2022-09-14T04:07:12;6.38;;;2.42;;
58123;SDS011;46725;48.068;20.832;2022-09-14T04:12:08;5.00;;;2.20;;
58123;SDS011;46725;48.068;20.832;2022-09-14T04:14:34;4.90;;;2.88;;
58123;SDS011;46725;48.068;20.832;2022-09-14T04:17:01;5.85;;;2.30;;
58123;SDS011;46725;48.068;20.832;2022-09-14T04:19:27;7.10;;;2.22;;
58123;SDS011;46725;48.068;20.832;2022-09-14T04:21:53;4.72;;;2.08;;
58123;SDS011;46725;48.068;20.832;2022-09-14T04:24:19;5.07;;;2.20;;
58123;SDS011;46725;48.068;20.832;2022-09-14T04:26:45;5.82;;;2.38;;
58123;SDS011;46725;48.068;20.832;2022-09-14T04:29:11;6.13;;;2.45;;
58123;SDS011;46725;48.068;20.832;2022-09-14T04:31:38;6.60;;;2.42;;
58123;SDS011;46725;48.068;20.832;2022-09-14T04:34:04;5.50;;;2.47;;
58123;SDS011;46725;48.068;20.832;2022-09-14T04:36:30;6.88;;;2.30;;
58123;SDS011;46725;48.068;20.832;2022-09-14T04:39:00;12.13;;;2.75;;
58123;SDS011;46725;48.068;20.832;2022-09-14T04:41:27;4.32;;;1.92;;
58123;SDS011;46725;48.068;20.832;2022-09-14T04:43:54;6.28;;;2.50;;
58123;SDS011;46725;48.068;20.832;2022-09-14T04:46:25;4.38;;;2.28;;
58123;SDS011;46725;48.068;20.832;2022-09-14T04:48:51;7.18;;;2.97;;
58123;SDS011;46725;48.068;20.832;2022-09-14T04:51:19;5.70;;;2.80;;
58123;SDS011;46725;48.068;20.832;2022-09-14T04:53:46;5.93;;;2.92;;
58123;SDS011;46725;48.068;20.832;2022-09-14T04:56:14;6.38;;;2.67;;
58123;SDS011;46725;48.068;20.832;2022-09-14T04:58:44;6.35;;;2.90;;
58123;SDS011;46725;48.068;20.832;2022-09-14T05:01:11;8.90;;;2.88;;
58123;SDS011;46725;48.068;20.832;2022-09-14T05:03:37;4.43;;;2.28;;
58123;SDS011;46725;48.068;20.832;2022-09-14T05:06:05;6.07;;;2.60;;
58123;SDS011;46725;48.068;20.832;2022-09-14T05:08:31;7.05;;;2.80;;
58123;SDS011;46725;48.068;20.832;2022-09-14T05:10:58;7.30;;;2.60;;
58123;SDS011;46725;48.068;20.832;2022-09-14T05:13:24;4.60;;;2.35;;
58123;SDS011;46725;48.068;20.832;2022-09-14T05:15:50;9.25;;;2.83;;
58123;SDS011;46725;48.068;20.832;2022-09-14T05:18:17;4.97;;;2.30;;
58123;SDS011;46725;48.068;20.832;2022-09-14T05:20:43;6.72;;;2.30;;
58123;SDS011;46725;48.068;20.832;2022-09-14T05:23:09;8.18;;;2.55;;
58123;SDS011;46725;48.068;20.832;2022-09-14T05:25:35;4.57;;;2.42;;
58123;SDS011;46725;48.068;20.832;2022-09-14T05:28:01;5.07;;;2.47;;
58123;SDS011;46725;48.068;20.832;2022-09-14T05:30:27;4.60;;;2.78;;
58123;SDS011;46725;48.068;20.832;2022-09-14T05:32:53;8.95;;;2.65;;
58123;SDS011;46725;48.068;20.832;2022-09-14T05:35:19;6.70;;;2.55;;
58123;SDS011;46725;48.068;20.832;2022-09-14T05:37:46;5.28;;;2.78;;
58123;SDS011;46725;48.068;20.832;2022-09-14T05:40:12;5.55;;;2.75;;
58123;SDS011;46725;48.068;20.832;2022-09-14T05:42:38;4.78;;;2.28;;
58123;SDS011;46725;48.068;20.832;2022-09-14T05:45:04;6.20;;;2.70;;
58123;SDS011;46725;48.068;20.832;2022-09-14T05:47:30;8.93;;;2.60;;
58123;SDS011;46725;48.068;20.832;2022-09-14T05:49:56;5.78;;;2.30;;
58123;SDS011;46725;48.068;20.832;2022-09-14T05:52:22;7.75;;;2.45;;
58123;SDS011;46725;48.068;20.832;2022-09-14T05:54:49;8.45;;;2.58;;
58123;SDS011;46725;48.068;20.832;2022-09-14T05:57:15;4.30;;;2.03;;
58123;SDS011;46725;48.068;20.832;2022-09-14T05:59:41;3.60;;;2.20;;
58123;SDS011;46725;48.068;20.832;2022-09-14T06:02:08;6.93;;;2.38;;
58123;SDS011;46725;48.068;20.832;2022-09-14T06:04:35;6.57;;;2.35;;
58123;SDS011;46725;48.068;20.832;2022-09-14T06:07:01;5.65;;;2.42;;
58123;SDS011;46725;48.068;20.832;2022-09-14T06:09:27;4.50;;;2.47;;
58123;SDS011;46725;48.068;20.832;2022-09-14T06:11:53;7.45;;;2.20;;
58123;SDS011;46725;48.068;20.832;2022-09-14T06:14:19;5.60;;;2.42;;
58123;SDS011;46725;48.068;20.832;2022-09-14T06:16:45;4.07;;;1.98;;
58123;SDS011;46725;48.068;20.832;2022-09-14T06:19:11;5.25;;;2.08;;
58123;SDS011;46725;48.068;20.832;2022-09-14T06:21:39;4.97;;;1.83;;
58123;SDS011;46725;48.068;20.832;2022-09-14T06:24:05;5.07;;;2.28;;
58123;SDS011;46725;48.068;20.832;2022-09-14T06:26:31;4.63;;;2.00;;
58123;SDS011;46725;48.068;20.832;2022-09-14T06:28:58;4.18;;;2.05;;
58123;SDS011;46725;48.068;20.832;2022-09-14T06:31:24;3.40;;;1.95;;
58123;SDS011;46725;48.068;20.832;2022-09-14T06:33:50;4.22;;;2.42;;
58123;SDS011;46725;48.068;20.832;2022-09-14T06:36:18;12.18;;;2.63;;
58123;SDS011;46725;48.068;20.832;2022-09-14T06:38:44;5.20;;;2.00;;
58123;SDS011;46725;48.068;20.832;2022-09-14T06:41:12;6.32;;;2.42;;
58123;SDS011;46725;48.068;20.832;2022-09-14T06:43:39;3.83;;;2.00;;
58123;SDS011;46725;48.068;20.832;2022-09-14T06:48:33;4.97;;;2.22;;
58123;SDS011;46725;48.068;20.832;2022-09-14T06:50:59;8.05;;;2.13;;
58123;SDS011;46725;48.068;20.832;2022-09-14T06:53:25;5.28;;;2.67;;
58123;SDS011;46725;48.068;20.832;2022-09-14T06:55:51;5.38;;;2.35;;
58123;SDS011;46725;48.068;20.832;2022-09-14T06:58:17;4.72;;;2.25;;
58123;SDS011;46725;48.068;20.832;2022-09-14T07:00:43;4.30;;;2.03;;
58123;SDS011;46725;48.068;20.832;2022-09-14T07:03:10;10.32;;;2.25;;
58123;SDS011;46725;48.068;20.832;2022-09-14T07:05:36;7.95;;;2.42;;
58123;SDS011;46725;48.068;20.832;2022-09-14T07:08:02;5.60;;;2.40;;
58123;SDS011;46725;48.068;20.832;2022-09-14T07:10:28;3.95;;;2.20;;
58123;SDS011;46725;48.068;20.832;2022-09-14T07:12:54;5.45;;;2.25;;
58123;SDS011;46725;48.068;20.832;2022-09-14T07:15:20;4.20;;;1.80;;
58123;SDS011;46725;48.068;20.832;2022-09-14T07:17:46;6.05;;;2.58;;
58123;SDS011;46725;48.068;20.832;2022-09-14T07:20:12;6.30;;;2.30;;
58123;SDS011;46725;48.068;20.832;2022-09-14T07:22:39;9.75;;;1.95;;
58123;SDS011;46725;48.068;20.832;2022-09-14T07:25:06;4.60;;;2.28;;
58123;SDS011;46725;48.068;20.832;2022-09-14T07:27:32;4.97;;;2.40;;
58123;SDS011;46725;48.068;20.832;2022-09-14T07:29:58;4.95;;;2.30;;
58123;SDS011;46725;48.068;20.832;2022-09-14T07:32:24;4.53;;;2.08;;
58123;SDS011;46725;48.068;20.832;2022-09-14T07:34:50;5.47;;;2.33;;
58123;SDS011;46725;48.068;20.832;2022-09-14T07:37:17;8.43;;;2.42;;
58123;SDS011;46725;48.068;20.832;2022-09-14T07:39:43;9.98;;;2.72;;
58123;SDS011;46725;48.068;20.832;2022-09-14T07:42:09;9.07;;;2.53;;
58123;SDS011;46725;48.068;20.832;2022-09-14T07:44:35;8.73;;;2.40;;
58123;SDS011;46725;48.068;20.832;2022-09-14T07:47:01;5.05;;;2.60;;
58123;SDS011;46725;48.068;20.832;2022-09-14T07:49:27;5.80;;;2.65;;
58123;SDS011;46725;48.068;20.832;2022-09-14T07:51:53;5.70;;;2.53;;
58123;SDS011;46725;48.068;20.832;2022-09-14T07:54:19;5.10;;;2.03;;
58123;SDS011;46725;48.068;20.832;2022-09-14T07:56:45;6.20;;;2.58;;
58123;SDS011;46725;48.068;20.832;2022-09-14T07:59:13;4.70;;;1.90;;
58123;SDS011;46725;48.068;20.832;2022-09-14T08:01:39;7.60;;;2.40;;
58123;SDS011;46725;48.068;20.832;2022-09-14T08:04:06;4.90;;;2.45;;
58123;SDS011;46725;48.068;20.832;2022-09-14T08:06:33;4.70;;;2.28;;
58123;SDS011;46725;48.068;20.832;2022-09-14T08:09:03;4.70;;;2.50;;
58123;SDS011;46725;48.068;20.832;2022-09-14T08:11:30;5.70;;;2.47;;
58123;SDS011;46725;48.068;20.832;2022-09-14T08:14:14;5.28;;;2.47;;
58123;SDS011;46725;48.068;20.832;2022-09-14T08:16:40;7.80;;;2.92;;
58123;SDS011;46725;48.068;20.832;2022-09-14T08:19:10;8.13;;;3.00;;
58123;SDS011;46725;48.068;20.832;2022-09-14T08:21:36;5.80;;;2.67;;
58123;SDS011;46725;48.068;20.832;2022-09-14T08:24:02;6.75;;;3.15;;
58123;SDS011;46725;48.068;20.832;2022-09-14T08:26:29;5.22;;;2.38;;
58123;SDS011;46725;48.068;20.832;2022-09-14T08:28:55;6.25;;;2.75;;
58123;SDS011;46725;48.068;20.832;2022-09-14T08:31:24;6.68;;;2.60;;
58123;SDS011;46725;48.068;20.832;2022-09-14T08:34:10;5.07;;;2.55;;
58123;SDS011;46725;48.068;20.832;2022-09-14T08:36:37;6.07;;;2.40;;
58123;SDS011;46725;48.068;20.832;2022-09-14T08:39:04;4.72;;;2.60;;
58123;SDS011;46725;48.068;20.832;2022-09-14T08:46:37;7.75;;;2.88;;
58123;SDS011;46725;48.068;20.832;2022-09-14T08:49:04;5.38;;;2.65;;
58123;SDS011;46725;48.068;20.832;2022-09-14T08:51:34;6.05;;;3.20;;
58123;SDS011;46725;48.068;20.832;2022-09-14T08:54:00;9.50;;;3.25;;
58123;SDS011;46725;48.068;20.832;2022-09-14T08:56:32;9.15;;;3.80;;
58123;SDS011;46725;48.068;20.832;2022-09-14T09:06:56;6.88;;;3.00;;
58123;SDS011;46725;48.068;20.832;2022-09-14T09:11:53;7.47;;;3.28;;
58123;SDS011;46725;48.068;20.832;2022-09-14T09:16:48;8.13;;;3.63;;
58123;SDS011;46725;48.068;20.832;2022-09-14T09:19:33;7.30;;;3.75;;
58123;SDS011;46725;48.068;20.832;2022-09-14T09:22:03;6.32;;;3.42;;
58123;SDS011;46725;48.068;20.832;2022-09-14T09:24:33;6.22;;;3.80;;
58123;SDS011;46725;48.068;20.832;2022-09-14T09:27:04;7.93;;;3.80;;
58123;SDS011;46725;48.068;20.832;2022-09-14T09:29:33;9.07;;;3.47;;
58123;SDS011;46725;48.068;20.832;2022-09-14T09:31:59;7.78;;;3.72;;
58123;SDS011;46725;48.068;20.832;2022-09-14T09:34:27;5.70;;;3.30;;
58123;SDS011;46725;48.068;20.832;2022-09-14T09:36:53;7.65;;;4.20;;
58123;SDS011;46725;48.068;20.832;2022-09-14T09:39:20;7.70;;;3.78;;
58123;SDS011;46725;48.068;20.832;2022-09-14T09:44:25;7.07;;;3.80;;
58123;SDS011;46725;48.068;20.832;2022-09-14T09:46:58;6.35;;;3.65;;
58123;SDS011;46725;48.068;20.832;2022-09-14T09:49:34;6.38;;;3.60;;
58123;SDS011;46725;48.068;20.832;2022-09-14T09:52:13;7.07;;;3.38;;
58123;SDS011;46725;48.068;20.832;2022-09-14T09:54:40;5.88;;;3.40;;
58123;SDS011;46725;48.068;20.832;2022-09-14T09:57:20;8.45;;;3.47;;
58123;SDS011;46725;48.068;20.832;2022-09-14T09:59:47;10.05;;;3.80;;
58123;SDS011;46725;48.068;20.832;2022-09-14T10:02:29;8.38;;;3.65;;
58123;SDS011;46725;48.068;20.832;2022-09-14T10:04:57;9.10;;;3.95;;
58123;SDS011;46725;48.068;20.832;2022-09-14T10:07:24;6.90;;;3.83;;
58123;SDS011;46725;48.068;20.832;2022-09-14T10:09:57;15.90;;;4.53;;
58123;SDS011;46725;48.068;20.832;2022-09-14T10:12:24;6.53;;;4.03;;
58123;SDS011;46725;48.068;20.832;2022-09-14T10:15:01;8.02;;;4.07;;
58123;SDS011;46725;48.068;20.832;2022-09-14T10:17:28;5.95;;;3.83;;
58123;SDS011;46725;48.068;20.832;2022-09-14T10:19:54;5.90;;;3.83;;
58123;SDS011;46725;48.068;20.832;2022-09-14T10:22:30;6.45;;;4.05;;
58123;SDS011;46725;48.068;20.832;2022-09-14T10:29:57;9.45;;;4.40;;
58123;SDS011;46725;48.068;20.832;2022-09-14T10:32:24;9.65;;;3.97;;
58123;SDS011;46725;48.068;20.832;2022-09-14T10:34:52;10.05;;;4.60;;
58123;SDS011;46725;48.068;20.832;2022-09-14T10:37:27;11.85;;;4.60;;
58123;SDS011;46725;48.068;20.832;2022-09-14T10:40:15;10.25;;;5.40;;
58123;SDS011;46725;48.068;20.832;2022-09-14T10:47:45;7.15;;;5.00;;
58123;SDS011;46725;48.068;20.832;2022-09-14T11:00:58;9.70;;;5.78;;
58123;SDS011;46725;48.068;20.832;2022-09-14T11:03:29;11.18;;;5.78;;
58123;SDS011;46725;48.068;20.832;2022-09-14T11:13:44;9.53;;;6.37;;
58123;SDS011;46725;48.068;20.832;2022-09-14T11:16:16;10.63;;;7.25;;
58123;SDS011;46725;48.068;20.832;2022-09-14T11:24:32;11.73;;;7.18;;
58123;SDS011;46725;48.068;20.832;2022-09-14T11:29:37;13.45;;;6.50;;
58123;SDS011;46725;48.068;20.832;2022-09-14T11:32:08;9.23;;;5.75;;
58123;SDS011;46725;48.068;20.832;2022-09-14T11:34:47;9.68;;;5.68;;
58123;SDS011;46725;48.068;20.832;2022-09-14T11:37:19;8.38;;;6.43;;
58123;SDS011;46725;48.068;20.832;2022-09-14T11:42:39;9.45;;;6.20;;
58123;SDS011;46725;48.068;20.832;2022-09-14T11:45:28;9.65;;;6.68;;
58123;SDS011;46725;48.068;20.832;2022-09-14T11:47:57;8.77;;;6.05;;
58123;SDS011;46725;48.068;20.832;2022-09-14T11:50:25;9.80;;;6.78;;
58123;SDS011;46725;48.068;20.832;2022-09-14T11:52:59;13.05;;;6.50;;
58123;SDS011;46725;48.068;20.832;2022-09-14T11:55:27;9.32;;;6.22;;
58123;SDS011;46725;48.068;20.832;2022-09-14T11:57:53;10.52;;;6.68;;
58123;SDS011;46725;48.068;20.832;2022-09-14T12:19:29;10.93;;;7.72;;
58123;SDS011;46725;48.068;20.832;2022-09-14T12:21:56;10.82;;;7.80;;
58123;SDS011;46725;48.068;20.832;2022-09-14T12:24:22;13.45;;;8.05;;
58123;SDS011;46725;48.068;20.832;2022-09-14T12:26:48;11.10;;;8.02;;
58123;SDS011;46725;48.068;20.832;2022-09-14T12:29:33;10.13;;;7.50;;
58123;SDS011;46725;48.068;20.832;2022-09-14T12:32:00;10.63;;;8.50;;
58123;SDS011;46725;48.068;20.832;2022-09-14T12:34:27;14.85;;;9.27;;
58123;SDS011;46725;48.068;20.832;2022-09-14T12:36:57;11.98;;;9.27;;
58123;SDS011;46725;48.068;20.832;2022-09-14T12:39:25;16.30;;;10.23;;
58123;SDS011;46725;48.068;20.832;2022-09-14T12:44:30;12.50;;;9.60;;
58123;SDS011;46725;48.068;20.832;2022-09-14T12:46:57;14.40;;;9.70;;
58123;SDS011;46725;48.068;20.832;2022-09-14T12:49:33;16.08;;;10.07;;
58123;SDS011;46725;48.068;20.832;2022-09-14T12:52:01;13.02;;;9.23;;
58123;SDS011;46725;48.068;20.832;2022-09-14T12:57:18;14.70;;;9.63;;
58123;SDS011;46725;48.068;20.832;2022-09-14T13:04:43;12.25;;;9.18;;
58123;SDS011;46725;48.068;20.832;2022-09-14T13:07:15;13.82;;;9.50;;
58123;SDS011;46725;48.068;20.832;2022-09-14T13:09:49;11.98;;;8.75;;
58123;SDS011;46725;48.068;20.832;2022-09-14T13:12:49;11.60;;;8.15;;
58123;SDS011;46725;48.068;20.832;2022-09-14T13:20:25;10.27;;;7.80;;
58123;SDS011;46725;48.068;20.832;2022-09-14T13:22:52;9.60;;;7.43;;
58123;SDS011;46725;48.068;20.832;2022-09-14T13:25:25;11.10;;;8.23;;
58123;SDS011;46725;48.068;20.832;2022-09-14T13:27:51;13.30;;;7.03;;
58123;SDS011;46725;48.068;20.832;2022-09-14T13:30:19;8.88;;;6.55;;
58123;SDS011;46725;48.068;20.832;2022-09-14T13:32:46;8.88;;;7.10;;
58123;SDS011;46725;48.068;20.832;2022-09-14T13:37:58;10.13;;;7.47;;
58123;SDS011;46725;48.068;20.832;2022-09-14T13:40:26;10.73;;;7.75;;
58123;SDS011;46725;48.068;20.832;2022-09-14T13:42:53;11.40;;;7.20;;
58123;SDS011;46725;48.068;20.832;2022-09-14T13:45:20;10.68;;;8.55;;
58123;SDS011;46725;48.068;20.832;2022-09-14T13:47:46;11.20;;;8.10;;
58123;SDS011;46725;48.068;20.832;2022-09-14T13:50:13;14.07;;;8.70;;
58123;SDS011;46725;48.068;20.832;2022-09-14T13:52:40;10.88;;;8.10;;
58123;SDS011;46725;48.068;20.832;2022-09-14T13:55:17;10.60;;;7.82;;
58123;SDS011;46725;48.068;20.832;2022-09-14T14:00:28;10.07;;;6.90;;
58123;SDS011;46725;48.068;20.832;2022-09-14T14:02:59;9.68;;;6.57;;
58123;SDS011;46725;48.068;20.832;2022-09-14T14:05:27;13.48;;;8.48;;
58123;SDS011;46725;48.068;20.832;2022-09-14T14:07:54;12.85;;;8.05;;
58123;SDS011;46725;48.068;20.832;2022-09-14T14:10:44;13.30;;;7.68;;
58123;SDS011;46725;48.068;20.832;2022-09-14T14:13:07;10.82;;;7.07;;
58123;SDS011;46725;48.068;20.832;2022-09-14T14:15:38;10.70;;;7.68;;
58123;SDS011;46725;48.068;20.832;2022-09-14T14:23:49;11.48;;;6.72;;
58123;SDS011;46725;48.068;20.832;2022-09-14T14:26:25;9.65;;;7.35;;
58123;SDS011;46725;48.068;20.832;2022-09-14T14:28:52;10.77;;;7.60;;
58123;SDS011;46725;48.068;20.832;2022-09-14T14:31:19;12.65;;;9.02;;
58123;SDS011;46725;48.068;20.832;2022-09-14T14:33:46;11.75;;;7.78;;
58123;SDS011;46725;48.068;20.832;2022-09-14T14:36:13;11.00;;;7.63;;
58123;SDS011;46725;48.068;20.832;2022-09-14T14:38:42;12.57;;;8.00;;
58123;SDS011;46725;48.068;20.832;2022-09-14T14:41:12;11.48;;;7.55;;
58123;SDS011;46725;48.068;20.832;2022-09-14T14:43:39;12.43;;;8.45;;
58123;SDS011;46725;48.068;20.832;2022-09-14T14:46:06;13.13;;;7.85;;
58123;SDS011;46725;48.068;20.832;2022-09-14T14:48:32;10.48;;;7.95;;
58123;SDS011;46725;48.068;20.832;2022-09-14T14:50:58;12.32;;;9.35;;
58123;SDS011;46725;48.068;20.832;2022-09-14T14:53:24;13.73;;;9.43;;
58123;SDS011;46725;48.068;20.832;2022-09-14T14:55:51;14.02;;;10.13;;
58123;SDS011;46725;48.068;20.832;2022-09-14T14:58:17;11.88;;;9.45;;
58123;SDS011;46725;48.068;20.832;2022-09-14T15:00:44;13.18;;;9.50;;
58123;SDS011;46725;48.068;20.832;2022-09-14T15:03:11;13.00;;;9.65;;
58123;SDS011;46725;48.068;20.832;2022-09-14T15:05:41;12.90;;;9.82;;
58123;SDS011;46725;48.068;20.832;2022-09-14T15:08:08;11.40;;;8.75;;
58123;SDS011;46725;48.068;20.832;2022-09-14T15:10:34;13.00;;;8.98;;
58123;SDS011;46725;48.068;20.832;2022-09-14T15:13:00;16.75;;;9.85;;
58123;SDS011;46725;48.068;20.832;2022-09-14T15:15:26;13.90;;;9.55;;
58123;SDS011;46725;48.068;20.832;2022-09-14T15:17:52;13.45;;;10.10;;
58123;SDS011;46725;48.068;20.832;2022-09-14T15:20:19;12.88;;;10.52;;
58123;SDS011;46725;48.068;20.832;2022-09-14T15:22:46;12.85;;;9.88;;
58123;SDS011;46725;48.068;20.832;2022-09-14T15:25:12;14.05;;;10.35;;
58123;SDS011;46725;48.068;20.832;2022-09-14T15:27:38;13.98;;;10.35;;
58123;SDS011;46725;48.068;20.832;2022-09-14T15:30:05;18.17;;;10.20;;
58123;SDS011;46725;48.068;20.832;2022-09-14T15:32:31;17.02;;;10.70;;
58123;SDS011;46725;48.068;20.832;2022-09-14T15:34:57;13.60;;;10.73;;
58123;SDS011;46725;48.068;20.832;2022-09-14T15:37:23;14.80;;;9.88;;
58123;SDS011;46725;48.068;20.832;2022-09-14T15:39:49;15.00;;;8.85;;
58123;SDS011;46725;48.068;20.832;2022-09-14T15:42:16;12.77;;;9.80;;
58123;SDS011;46725;48.068;20.832;2022-09-14T15:44:42;13.93;;;10.63;;
58123;SDS011;46725;48.068;20.832;2022-09-14T15:47:08;15.88;;;10.52;;
58123;SDS011;46725;48.068;20.832;2022-09-14T15:49:34;14.27;;;10.43;;
58123;SDS011;46725;48.068;20.832;2022-09-14T15:52:01;15.98;;;10.30;;
58123;SDS011;46725;48.068;20.832;2022-09-14T15:54:30;11.65;;;9.50;;
58123;SDS011;46725;48.068;20.832;2022-09-14T15:56:57;15.45;;;9.45;;
58123;SDS011;46725;48.068;20.832;2022-09-14T15:59:24;11.18;;;8.73;;
58123;SDS011;46725;48.068;20.832;2022-09-14T16:01:50;11.40;;;8.98;;
58123;SDS011;46725;48.068;20.832;2022-09-14T16:04:17;13.15;;;8.23;;
58123;SDS011;46725;48.068;20.832;2022-09-14T16:06:43;13.57;;;8.77;;
58123;SDS011;46725;48.068;20.832;2022-09-14T16:09:09;12.75;;;9.20;;
58123;SDS011;46725;48.068;20.832;2022-09-14T16:11:36;10.98;;;8.85;;
58123;SDS011;46725;48.068;20.832;2022-09-14T16:14:03;14.27;;;9.25;;
58123;SDS011;46725;48.068;20.832;2022-09-14T16:16:29;15.25;;;9.90;;
58123;SDS011;46725;48.068;20.832;2022-09-14T16:18:55;14.07;;;10.70;;
58123;SDS011;46725;48.068;20.832;2022-09-14T16:21:24;12.57;;;9.70;;
58123;SDS011;46725;48.068;20.832;2022-09-14T16:23:52;18.80;;;10.63;;
58123;SDS011;46725;48.068;20.832;2022-09-14T16:26:19;13.45;;;9.77;;
58123;SDS011;46725;48.068;20.832;2022-09-14T16:28:46;12.18;;;9.90;;
58123;SDS011;46725;48.068;20.832;2022-09-14T16:31:14;13.13;;;9.25;;
58123;SDS011;46725;48.068;20.832;2022-09-14T16:33:41;14.35;;;9.88;;
58123;SDS011;46725;48.068;20.832;2022-09-14T16:36:08;15.57;;;10.20;;
58123;SDS011;46725;48.068;20.832;2022-09-14T16:38:35;14.13;;;10.27;;
58123;SDS011;46725;48.068;20.832;2022-09-14T16:41:01;13.00;;;10.40;;
58123;SDS011;46725;48.068;20.832;2022-09-14T16:43:28;13.73;;;9.77;;
58123;SDS011;46725;48.068;20.832;2022-09-14T16:46:01;13.40;;;8.95;;
58123;SDS011;46725;48.068;20.832;2022-09-14T16:48:27;13.20;;;9.73;;